createdAt,value
2018-06-09T00:01:24.250Z,2.83
2018-06-09T00:03:52.422Z,3.60
2018-06-09T00:06:20.600Z,3.67
2018-06-09T00:08:49.413Z,3.10
2018-06-09T00:11:17.577Z,3.07
2018-06-09T00:13:45.840Z,3.30
2018-06-09T00:16:14.038Z,3.30
2018-06-09T00:18:42.300Z,3.00
2018-06-09T00:21:10.736Z,3.97
2018-06-09T00:23:38.961Z,3.00
2018-06-09T00:26:07.098Z,3.33
2018-06-09T00:28:35.274Z,2.70
2018-06-09T00:31:03.552Z,3.37
2018-06-09T00:33:31.736Z,3.40
2018-06-09T00:35:59.927Z,3.17
2018-06-09T00:38:28.168Z,3.47
2018-06-09T00:40:56.700Z,3.43
2018-06-09T00:43:24.936Z,3.20
2018-06-09T00:45:53.290Z,3.50
2018-06-09T00:48:21.510Z,3.43
2018-06-09T00:50:49.666Z,3.20
2018-06-09T00:53:17.910Z,3.70
2018-06-09T00:55:46.271Z,3.63
2018-06-09T00:58:14.507Z,3.37
2018-06-09T01:00:42.712Z,3.47
2018-06-09T01:03:11.293Z,3.40
2018-06-09T01:05:39.495Z,3.20
2018-06-09T01:08:07.394Z,4.47
2018-06-09T01:10:35.810Z,3.30
2018-06-09T01:13:04.014Z,3.03
2018-06-09T01:15:32.199Z,3.30
2018-06-09T01:18:00.400Z,5.80
2018-06-09T01:20:28.609Z,3.50
2018-06-09T01:22:56.885Z,3.70
2018-06-09T01:25:25.291Z,3.57
2018-06-09T01:27:53.476Z,3.43
2018-06-09T01:30:21.616Z,3.80
2018-06-09T01:32:49.839Z,3.57
2018-06-09T01:35:18.071Z,3.73
2018-06-09T01:37:46.481Z,3.23
2018-06-09T01:40:14.655Z,4.40
2018-06-09T01:42:42.854Z,3.40
2018-06-09T01:45:11.564Z,4.93
2018-06-09T01:47:39.494Z,3.30
2018-06-09T01:50:07.707Z,3.70
2018-06-09T01:52:35.897Z,3.40
2018-06-09T01:55:04.057Z,3.30
2018-06-09T01:57:32.228Z,3.23
2018-06-09T02:00:00.391Z,3.40
2018-06-09T02:02:28.613Z,3.53
2018-06-09T02:04:56.753Z,3.50
2018-06-09T02:07:24.929Z,3.30
2018-06-09T02:09:53.135Z,3.63
2018-06-09T02:12:21.291Z,4.10
2018-06-09T02:14:49.475Z,3.80
2018-06-09T02:17:17.718Z,3.90
2018-06-09T02:19:45.907Z,3.20
2018-06-09T02:22:14.100Z,3.70
2018-06-09T02:24:42.278Z,3.67
2018-06-09T02:27:10.410Z,3.40
2018-06-09T02:29:38.606Z,3.27
2018-06-09T02:32:06.757Z,3.03
2018-06-09T02:34:35.106Z,3.70
2018-06-09T02:37:03.366Z,3.43
2018-06-09T02:39:31.533Z,4.00
2018-06-09T02:41:59.730Z,3.33
2018-06-09T02:44:27.958Z,3.90
2018-06-09T02:46:56.186Z,3.70
2018-06-09T02:49:24.438Z,3.63
2018-06-09T02:51:52.762Z,3.73
2018-06-09T02:54:21.174Z,4.20
2018-06-09T02:56:49.350Z,4.00
2018-06-09T02:59:17.745Z,4.27
2018-06-09T03:01:45.902Z,4.20
2018-06-09T03:04:14.091Z,4.43
2018-06-09T03:06:42.255Z,5.20
2018-06-09T03:09:10.598Z,4.33
2018-06-09T03:11:38.804Z,4.70
2018-06-09T03:14:07.183Z,4.00
2018-06-09T03:16:35.367Z,4.50
2018-06-09T03:19:03.841Z,15.00
2018-06-09T03:21:32.050Z,11.90
2018-06-09T03:24:00.519Z,4.33
2018-06-09T03:26:28.713Z,4.00
2018-06-09T03:28:56.946Z,4.77
2018-06-09T03:31:25.626Z,6.00
2018-06-09T03:33:53.818Z,5.00
2018-06-09T03:36:22.229Z,5.17
2018-06-09T03:38:50.398Z,4.47
2018-06-09T03:41:18.876Z,9.17
2018-06-09T03:43:47.090Z,4.80
2018-06-09T03:46:15.285Z,4.47
2018-06-09T03:48:43.470Z,4.53
2018-06-09T03:51:11.699Z,4.00
2018-06-09T03:53:39.887Z,3.67
2018-06-09T03:56:08.267Z,4.12
2018-06-09T03:58:36.491Z,4.28
2018-06-09T04:01:04.919Z,4.12
2018-06-09T04:03:33.377Z,9.50
2018-06-09T04:06:01.615Z,5.47
2018-06-09T04:08:29.763Z,5.75
2018-06-09T04:10:58.067Z,4.30
2018-06-09T04:13:26.217Z,4.80
2018-06-09T04:15:54.408Z,4.70
2018-06-09T04:18:22.611Z,4.92
2018-06-09T04:20:51.037Z,4.67
2018-06-09T04:23:19.823Z,4.58
2018-06-09T04:25:48.001Z,4.97
2018-06-09T04:28:16.240Z,5.17
2018-06-09T04:30:44.455Z,5.12
2018-06-09T04:33:12.685Z,4.67
2018-06-09T04:35:40.983Z,4.62
2018-06-09T04:38:09.191Z,4.28
2018-06-09T04:40:37.409Z,4.08
2018-06-09T04:43:06.406Z,4.33
2018-06-09T04:45:34.548Z,4.67
2018-06-09T04:48:03.061Z,4.65
2018-06-09T04:50:31.547Z,4.33
2018-06-09T04:52:59.840Z,4.35
2018-06-09T04:55:28.070Z,4.67
2018-06-09T04:57:56.443Z,4.87
2018-06-09T05:00:24.618Z,5.47
2018-06-09T05:02:52.821Z,4.30
2018-06-09T05:05:21.072Z,4.83
2018-06-09T05:07:49.410Z,5.00
2018-06-09T05:10:17.624Z,4.25
2018-06-09T05:12:45.852Z,4.97
2018-06-09T05:15:14.097Z,5.17
2018-06-09T05:17:42.306Z,4.80
2018-06-09T05:20:10.507Z,4.85
2018-06-09T05:22:38.689Z,4.53
2018-06-09T05:25:06.869Z,5.15
2018-06-09T05:27:35.102Z,4.92
2018-06-09T05:30:03.348Z,4.85
2018-06-09T05:32:31.718Z,4.95
2018-06-09T05:34:59.903Z,4.45
2018-06-09T05:37:28.105Z,4.55
2018-06-09T05:39:56.302Z,4.62
2018-06-09T05:42:24.933Z,4.28
2018-06-09T05:44:53.139Z,5.05
2018-06-09T05:47:21.405Z,4.25
2018-06-09T05:49:49.692Z,4.20
2018-06-09T05:52:17.970Z,4.40
2018-06-09T05:54:46.129Z,4.15
2018-06-09T05:57:14.331Z,4.65
2018-06-09T05:59:42.511Z,4.33
2018-06-09T06:02:10.702Z,4.28
2018-06-09T06:04:39.001Z,3.70
2018-06-09T06:07:07.319Z,4.15
2018-06-09T06:09:35.671Z,4.00
2018-06-09T06:12:03.983Z,4.20
2018-06-09T06:14:32.182Z,4.20
2018-06-09T06:17:00.443Z,4.37
2018-06-09T06:19:28.645Z,4.60
2018-06-09T06:21:56.814Z,4.60
2018-06-09T06:24:24.985Z,4.15
2018-06-09T06:26:53.163Z,4.42
2018-06-09T06:29:21.627Z,4.40
2018-06-09T06:31:49.807Z,4.42
2018-06-09T06:34:18.039Z,4.70
2018-06-09T06:36:46.337Z,4.67
2018-06-09T06:39:14.593Z,4.97
2018-06-09T06:41:42.869Z,4.50
2018-06-09T06:44:11.059Z,5.25
2018-06-09T06:46:39.236Z,4.25
2018-06-09T06:49:07.442Z,4.75
2018-06-09T06:51:35.765Z,4.78
2018-06-09T06:54:03.988Z,4.67
2018-06-09T06:56:32.218Z,4.40
2018-06-09T06:59:00.460Z,4.60
2018-06-09T07:01:28.746Z,4.75
2018-06-09T07:03:56.941Z,4.47
2018-06-09T07:06:25.288Z,4.22
2018-06-09T07:08:53.633Z,5.03
2018-06-09T07:11:21.904Z,4.53
2018-06-09T07:13:50.381Z,4.90
2018-06-09T07:16:18.644Z,5.78
2018-06-09T07:18:47.030Z,4.05
2018-06-09T07:21:15.229Z,3.85
2018-06-09T07:23:43.563Z,3.80
2018-06-09T07:26:11.808Z,5.17
2018-06-09T07:28:40.287Z,4.65
2018-06-09T07:31:08.478Z,4.08
2018-06-09T07:33:36.724Z,3.77
2018-06-09T07:36:05.042Z,4.35
2018-06-09T07:38:33.242Z,4.25
2018-06-09T07:41:01.505Z,4.28
2018-06-09T07:43:29.792Z,4.20
2018-06-09T07:45:57.979Z,4.33
2018-06-09T07:48:26.256Z,3.80
2018-06-09T07:50:54.489Z,4.00
2018-06-09T07:53:22.720Z,3.80
2018-06-09T07:55:51.210Z,4.00
2018-06-09T07:58:19.654Z,3.45
2018-06-09T08:00:47.838Z,4.62
2018-06-09T08:03:16.156Z,3.87
2018-06-09T08:05:44.568Z,3.90
2018-06-09T08:08:12.838Z,3.80
2018-06-09T08:10:41.145Z,3.70
2018-06-09T08:13:09.506Z,4.20
2018-06-09T08:15:37.773Z,3.95
2018-06-09T08:18:06.079Z,3.37
2018-06-09T08:20:34.389Z,4.00
2018-06-09T08:23:02.596Z,3.72
2018-06-09T08:25:30.874Z,3.72
2018-06-09T08:27:59.142Z,3.60
2018-06-09T08:30:27.423Z,4.50
2018-06-09T08:32:55.621Z,4.22
2018-06-09T08:35:23.840Z,3.95
2018-06-09T08:37:52.059Z,3.95
2018-06-09T08:40:20.502Z,3.42
2018-06-09T08:42:48.779Z,3.33
2018-06-09T08:45:17.392Z,3.20
2018-06-09T08:47:45.592Z,2.85
2018-06-09T08:50:13.789Z,3.00
2018-06-09T08:52:42.020Z,3.10
2018-06-09T08:55:10.301Z,3.50
2018-06-09T08:57:38.696Z,2.90
2018-06-09T09:00:07.043Z,3.75
2018-06-09T09:02:35.854Z,3.15
2018-06-09T09:05:04.145Z,3.67
2018-06-09T09:07:32.475Z,3.80
2018-06-09T09:10:00.672Z,3.02
2018-06-09T09:12:28.823Z,3.75
2018-06-09T09:14:58.391Z,3.30
2018-06-09T09:17:26.712Z,3.35
2018-06-09T09:19:54.945Z,3.12
2018-06-09T09:22:23.233Z,3.40
2018-06-09T09:24:51.516Z,3.67
2018-06-09T09:27:19.859Z,3.60
2018-06-09T09:29:48.302Z,3.70
2018-06-09T09:32:16.608Z,3.52
2018-06-09T09:34:44.903Z,3.30
2018-06-09T09:37:13.342Z,3.42
2018-06-09T09:39:41.557Z,3.47
2018-06-09T09:42:09.794Z,3.98
2018-06-09T09:44:37.995Z,3.52
2018-06-09T09:47:06.404Z,3.60
2018-06-09T09:49:35.013Z,3.40
2018-06-09T09:52:03.257Z,3.40
2018-06-09T09:54:31.579Z,3.50
2018-06-09T09:56:59.782Z,2.67
2018-06-09T09:59:28.433Z,3.30
2018-06-09T10:01:56.646Z,3.50
2018-06-09T10:04:24.927Z,3.40
2018-06-09T10:06:53.123Z,3.42
2018-06-09T10:09:21.498Z,3.45
2018-06-09T10:11:49.789Z,3.35
2018-06-09T10:14:18.569Z,3.05
2018-06-09T10:16:46.743Z,3.10
2018-06-09T10:19:15.222Z,2.90
2018-06-09T10:21:43.455Z,3.25
2018-06-09T10:24:11.697Z,3.60
2018-06-09T10:26:40.109Z,3.72
2018-06-09T10:29:08.323Z,3.15
2018-06-09T10:31:36.525Z,2.87
2018-06-09T10:34:04.843Z,3.40
2018-06-09T10:36:33.208Z,2.95
2018-06-09T10:39:01.441Z,3.62
2018-06-09T10:41:29.657Z,3.37
2018-06-09T10:43:57.877Z,3.45
2018-06-09T10:46:26.078Z,3.47
2018-06-09T10:48:54.304Z,2.92
2018-06-09T10:51:22.874Z,2.70
2018-06-09T10:53:51.102Z,3.52
2018-06-09T10:56:19.310Z,4.40
2018-06-09T10:58:47.518Z,3.60
2018-06-09T11:01:16.183Z,3.80
2018-06-09T11:03:44.418Z,3.42
2018-06-09T11:06:12.732Z,3.40
2018-06-09T11:08:41.182Z,3.10
2018-06-09T11:11:09.461Z,4.00
2018-06-09T11:13:37.684Z,3.67
2018-06-09T11:16:05.853Z,3.95
2018-06-09T11:18:34.555Z,3.85
2018-06-09T11:21:03.080Z,3.15
2018-06-09T11:23:31.441Z,3.12
2018-06-09T11:25:59.651Z,3.60
2018-06-09T11:28:27.927Z,3.20
2018-06-09T11:30:56.156Z,3.40
2018-06-09T11:33:24.858Z,3.67
2018-06-09T11:35:54.565Z,3.20
2018-06-09T11:38:22.805Z,3.22
2018-06-09T11:40:51.359Z,3.50
2018-06-09T11:43:19.953Z,3.58
2018-06-09T11:45:48.122Z,3.27
2018-06-09T11:48:16.417Z,3.50
2018-06-09T11:50:45.595Z,3.58
2018-06-09T11:53:13.968Z,3.47
2018-06-09T11:55:42.226Z,3.40
2018-06-09T11:58:10.981Z,3.85
2018-06-09T12:00:39.340Z,3.52
2018-06-09T12:03:07.547Z,3.58
2018-06-09T12:05:35.871Z,3.00
2018-06-09T12:08:04.024Z,3.67
2018-06-09T12:10:32.682Z,3.35
2018-06-09T12:13:00.928Z,3.20
2018-06-09T12:15:30.048Z,2.87
2018-06-09T12:17:58.249Z,3.17
2018-06-09T12:20:26.414Z,3.58
2018-06-09T12:22:54.562Z,3.20
2018-06-09T12:25:22.767Z,3.33
2018-06-09T12:27:51.051Z,3.60
2018-06-09T12:30:19.932Z,4.33
2018-06-09T12:32:48.339Z,3.22
2018-06-09T12:35:16.711Z,3.20
2018-06-09T12:37:44.946Z,4.30
2018-06-09T12:40:13.444Z,3.35
2018-06-09T12:42:41.682Z,3.60
2018-06-09T12:45:10.061Z,4.12
2018-06-09T12:47:38.266Z,3.62
2018-06-09T12:50:06.821Z,4.25
2018-06-09T12:52:35.098Z,4.28
2018-06-09T12:55:03.305Z,3.77
2018-06-09T12:57:31.513Z,3.87
2018-06-09T12:59:59.933Z,4.50
2018-06-09T13:02:28.213Z,4.12
2018-06-09T13:04:56.389Z,3.62
2018-06-09T13:07:24.669Z,4.15
2018-06-09T13:09:53.073Z,4.10
2018-06-09T13:12:21.437Z,4.05
2018-06-09T13:14:49.967Z,4.00
2018-06-09T13:17:18.287Z,3.95
2018-06-09T13:19:46.462Z,4.05
2018-06-09T13:22:14.856Z,4.10
2018-06-09T13:24:43.721Z,4.08
2018-06-09T13:27:11.924Z,4.53
2018-06-09T13:29:40.159Z,4.62
2018-06-09T13:32:08.734Z,3.70
2018-06-09T13:34:36.893Z,4.15
2018-06-09T13:37:05.729Z,4.30
2018-06-09T13:39:34.006Z,4.30
2018-06-09T13:42:02.453Z,9.85
2018-06-09T13:44:30.698Z,4.20
2018-06-09T13:46:59.230Z,4.10
2018-06-09T13:49:27.589Z,4.20
2018-06-09T13:51:56.451Z,3.87
2018-06-09T13:54:24.894Z,4.30
2018-06-09T13:56:53.127Z,4.28
2018-06-09T13:59:21.444Z,4.08
2018-06-09T14:01:49.877Z,4.30
2018-06-09T14:04:18.108Z,4.10
2018-06-09T14:06:46.364Z,4.22
2018-06-09T14:09:14.917Z,3.92
2018-06-09T14:11:43.258Z,4.17
2018-06-09T14:14:11.671Z,4.10
2018-06-09T14:16:40.007Z,4.03
2018-06-09T14:19:08.849Z,4.67
2018-06-09T14:21:37.423Z,3.80
2018-06-09T14:24:05.743Z,4.75
2018-06-09T14:26:34.019Z,4.30
2018-06-09T14:29:02.250Z,4.35
2018-06-09T14:31:30.533Z,4.10
2018-06-09T14:33:58.753Z,3.98
2018-06-09T14:36:27.042Z,3.87
2018-06-09T14:38:55.272Z,4.12
2018-06-09T14:41:23.427Z,3.90
2018-06-09T14:43:51.616Z,4.03
2018-06-09T14:46:19.779Z,4.15
2018-06-09T14:48:47.987Z,4.03
2018-06-09T14:51:16.296Z,3.85
2018-06-09T14:53:44.524Z,3.90
2018-06-09T14:56:12.690Z,4.17
2018-06-09T14:58:40.915Z,3.60
2018-06-09T15:01:09.204Z,3.95
2018-06-09T15:03:37.459Z,4.28
2018-06-09T15:06:05.862Z,4.28
2018-06-09T15:08:34.040Z,4.30
2018-06-09T15:11:02.307Z,3.85
2018-06-09T15:13:30.570Z,3.58
2018-06-09T15:15:58.782Z,4.45
2018-06-09T15:18:26.954Z,4.05
2018-06-09T15:20:55.246Z,4.20
2018-06-09T15:23:23.436Z,4.20
2018-06-09T15:25:51.673Z,3.67
2018-06-09T15:28:19.914Z,4.47
2018-06-09T15:30:48.117Z,3.70
2018-06-09T15:33:17.057Z,3.60
2018-06-09T15:35:45.214Z,4.00
2018-06-09T15:38:13.459Z,3.77
2018-06-09T15:40:41.670Z,4.30
2018-06-09T15:43:09.929Z,4.22
2018-06-09T15:45:38.184Z,4.37
2018-06-09T15:48:06.397Z,4.20
2018-06-09T15:50:35.156Z,3.90
2018-06-09T15:53:03.377Z,4.30
2018-06-09T15:55:31.618Z,4.47
2018-06-09T15:57:59.830Z,3.70
2018-06-09T16:00:28.090Z,3.98
2018-06-09T16:02:56.325Z,3.83
2018-06-09T16:05:24.534Z,4.25
2018-06-09T16:07:52.835Z,3.65
2018-06-09T16:10:21.079Z,4.00
2018-06-09T16:12:49.441Z,3.47
2018-06-09T16:15:17.793Z,4.00
2018-06-09T16:17:46.093Z,4.10
2018-06-09T16:20:14.384Z,4.00
2018-06-09T16:22:43.160Z,4.05
2018-06-09T16:25:11.402Z,4.17
2018-06-09T16:27:39.981Z,3.92
2018-06-09T16:30:08.346Z,3.98
2018-06-09T16:32:36.577Z,3.72
2018-06-09T16:35:04.757Z,3.90
2018-06-09T16:37:32.920Z,4.05
2018-06-09T16:40:01.077Z,4.50
2018-06-09T16:42:29.284Z,4.03
2018-06-09T16:44:57.745Z,4.33
2018-06-09T16:47:26.079Z,4.08
2018-06-09T16:49:54.412Z,4.03
2018-06-09T16:52:22.675Z,4.17
2018-06-09T16:54:50.921Z,4.50
2018-06-09T16:57:20.119Z,4.60
2018-06-09T16:59:48.329Z,4.12
2018-06-09T17:02:16.844Z,4.80
2018-06-09T17:04:45.505Z,4.40
2018-06-09T17:07:20.508Z,4.10
2018-06-09T17:09:49.053Z,4.80
2018-06-09T17:12:17.229Z,4.92
2018-06-09T17:14:45.480Z,4.67
2018-06-09T17:17:13.726Z,5.00
2018-06-09T17:19:41.939Z,4.62
2018-06-09T17:22:10.645Z,4.50
2018-06-09T17:24:38.985Z,4.70
2018-06-09T17:27:07.195Z,4.65
2018-06-09T17:29:35.535Z,4.60
2018-06-09T17:32:04.084Z,4.40
2018-06-09T17:34:32.375Z,4.87
2018-06-09T17:37:00.638Z,4.95
2018-06-09T17:39:28.879Z,4.60
2018-06-09T17:41:57.086Z,4.72
2018-06-09T17:44:25.913Z,5.05
2018-06-09T17:46:54.175Z,4.50
2018-06-09T17:49:22.369Z,4.97
2018-06-09T17:51:50.616Z,4.55
2018-06-09T17:54:18.777Z,5.15
2018-06-09T17:56:46.955Z,5.12
2018-06-09T17:59:15.188Z,5.22
2018-06-09T18:01:43.359Z,4.95
2018-06-09T18:04:11.550Z,5.22
2018-06-09T18:06:39.916Z,5.35
2018-06-09T18:09:09.207Z,5.45
2018-06-09T18:11:37.488Z,5.17
2018-06-09T18:14:05.727Z,5.08
2018-06-09T18:16:34.081Z,4.72
2018-06-09T18:19:02.510Z,4.50
2018-06-09T18:21:30.734Z,4.97
2018-06-09T18:23:59.226Z,5.00
2018-06-09T18:26:27.580Z,6.17
2018-06-09T18:28:55.825Z,5.72
2018-06-09T18:31:24.043Z,5.80
2018-06-09T18:33:52.334Z,6.28
2018-06-09T18:36:20.629Z,6.50
2018-06-09T18:38:48.818Z,6.62
2018-06-09T18:41:17.002Z,6.87
2018-06-09T18:43:45.429Z,6.30
2018-06-09T18:46:13.584Z,7.00
2018-06-09T18:48:41.833Z,6.75
2018-06-09T18:51:10.098Z,6.62
2018-06-09T18:53:38.326Z,7.85
2018-06-09T18:56:06.522Z,7.33
2018-06-09T18:58:34.818Z,7.10
2018-06-09T19:01:03.657Z,8.10
2018-06-09T19:03:31.861Z,7.28
2018-06-09T19:06:00.183Z,8.20
2018-06-09T19:08:28.486Z,7.40
2018-06-09T19:10:56.695Z,7.67
2018-06-09T19:13:24.940Z,7.90
2018-06-09T19:15:53.208Z,9.03
2018-06-09T19:18:21.458Z,7.67
2018-06-09T19:20:49.668Z,9.80
2018-06-09T19:23:18.119Z,7.87
2018-06-09T19:25:46.385Z,7.27
2018-06-09T19:28:14.632Z,7.60
2018-06-09T19:30:42.835Z,7.27
2018-06-09T19:33:11.249Z,7.47
2018-06-09T19:35:39.645Z,8.00
2018-06-09T19:38:08.529Z,7.43
2018-06-09T19:40:36.792Z,7.90
2018-06-09T19:43:05.207Z,9.33
2018-06-09T19:45:33.385Z,7.50
2018-06-09T19:48:01.591Z,7.97
2018-06-09T19:50:29.926Z,7.97
2018-06-09T19:52:58.873Z,7.90
2018-06-09T19:55:27.636Z,9.13
2018-06-09T19:57:55.898Z,9.20
2018-06-09T20:00:24.360Z,11.20
2018-06-09T20:02:52.936Z,9.20
2018-06-09T20:05:21.244Z,9.07
2018-06-09T20:07:49.696Z,8.80
2018-06-09T20:10:18.035Z,12.83
2018-06-09T20:12:46.355Z,11.37
2018-06-09T20:15:14.711Z,10.37
2018-06-09T20:17:43.374Z,11.53
2018-06-09T20:20:11.587Z,13.77
2018-06-09T20:22:39.806Z,10.73
2018-06-09T20:25:08.082Z,10.37
2018-06-09T20:27:36.801Z,10.40
2018-06-09T20:30:05.339Z,10.33
2018-06-09T20:32:33.632Z,13.33
2018-06-09T20:35:02.568Z,10.67
2018-06-09T20:37:31.325Z,11.70
2018-06-09T20:40:00.063Z,11.93
2018-06-09T20:42:28.472Z,10.70
2018-06-09T20:44:57.152Z,11.17
2018-06-09T20:47:25.409Z,10.87
2018-06-09T20:49:54.154Z,13.30
2018-06-09T20:52:24.370Z,19.87
2018-06-09T20:54:53.402Z,17.20
2018-06-09T20:57:21.642Z,18.27
2018-06-09T20:59:49.913Z,12.90
2018-06-09T21:02:18.147Z,11.07
2018-06-09T21:04:46.459Z,12.30
2018-06-09T21:07:14.698Z,12.50
2018-06-09T21:09:42.916Z,11.93
2018-06-09T21:12:11.197Z,11.90
2018-06-09T21:14:39.292Z,12.43
2018-06-09T21:17:08.381Z,11.60
2018-06-09T21:19:42.981Z,13.60
2018-06-09T21:22:12.349Z,16.70
2018-06-09T21:24:40.524Z,36.00
2018-06-09T21:27:14.385Z,24.67
2018-06-09T21:29:49.765Z,18.07
2018-06-09T21:32:23.506Z,18.40
2018-06-09T21:35:04.377Z,36.00
2018-06-09T21:37:39.968Z,15.00
2018-06-09T21:40:19.498Z,14.07
2018-06-09T21:42:53.041Z,11.30
2018-06-09T21:45:28.442Z,19.47
2018-06-09T21:47:56.821Z,13.70
2018-06-09T21:50:25.273Z,15.13
2018-06-09T21:52:53.614Z,18.80
2018-06-09T21:55:22.120Z,17.97
2018-06-09T21:57:50.556Z,18.87
2018-06-09T22:00:19.567Z,31.77
2018-06-09T22:02:47.954Z,12.47
2018-06-09T22:05:19.943Z,20.77
2018-06-09T22:07:48.204Z,10.87
2018-06-09T22:10:16.788Z,10.07
2018-06-09T22:12:45.086Z,21.40
2018-06-09T22:15:13.542Z,16.93
2018-06-09T22:17:41.919Z,14.73
2018-06-09T22:20:10.163Z,16.23
2018-06-09T22:22:38.600Z,10.90
2018-06-09T22:25:07.778Z,11.20
2018-06-09T22:27:35.954Z,23.97
2018-06-09T22:30:04.149Z,11.37
2018-06-09T22:32:32.403Z,11.43
2018-06-09T22:35:00.749Z,13.10
2018-06-09T22:37:28.947Z,11.33
2018-06-09T22:39:57.342Z,12.53
2018-06-09T22:42:25.524Z,11.00
2018-06-09T22:44:53.848Z,11.90
2018-06-09T22:47:22.025Z,13.67
2018-06-09T22:49:50.233Z,12.63
2018-06-09T22:52:18.421Z,13.23
2018-06-09T22:54:46.662Z,13.20
2018-06-09T22:57:14.965Z,20.87
2018-06-09T22:59:43.152Z,14.20
2018-06-09T23:02:11.494Z,14.00
2018-06-09T23:04:39.683Z,16.20
2018-06-09T23:07:07.927Z,16.60
2018-06-09T23:09:36.352Z,13.47
2018-06-09T23:12:05.058Z,12.53
2018-06-09T23:14:33.367Z,15.43
2018-06-09T23:17:01.645Z,15.23
2018-06-09T23:19:29.849Z,13.70
2018-06-09T23:21:58.208Z,12.70
2018-06-09T23:24:26.404Z,15.30
2018-06-09T23:26:54.668Z,14.87
2018-06-09T23:29:22.943Z,13.13
2018-06-09T23:31:51.044Z,12.63
2018-06-09T23:34:19.420Z,12.43
2018-06-09T23:36:48.363Z,17.73
2018-06-09T23:39:16.585Z,16.00
2018-06-09T23:41:44.762Z,16.53
2018-06-09T23:44:12.908Z,21.50
2018-06-09T23:46:41.173Z,26.37
2018-06-09T23:49:09.432Z,13.30
2018-06-09T23:51:37.698Z,22.03
2018-06-09T23:54:06.088Z,13.03
2018-06-09T23:56:34.268Z,16.33
2018-06-09T23:59:02.566Z,12.87
